Flight Track Log - Related Links

Times and Time Zones

All times are in EDT time to prevent confusion due to time zone crossing. See the ABX37 flight status page for this flight to view local times or setup timezone preferences in your user account.

Time Position Orientation Groundspeed Altitude Reporting Facility
EDT Latitude Longitude Course Direction KTS MPH feet Rate Location/Type
Sun 01:18:36 PM 39.0333 -84.6500 53° Northeast 164 189 1,500  Level Cincinnati TRACON
Sun 01:19:24 PM 39.0000 -84.6500 164° South 182 209 4,700 3,643 Climbing Cincinnati TRACON
Sun 01:20:00 PM 38.9520 -84.6342 159° South 275 316 6,600 2,316 Climbing FlightAware ADS-B (KCVG)
Sun 01:20:21 PM 38.9307 -84.6165 134° Southeast 284 327 6,900 750 Climbing FlightAware ADS-B (KCVG)
Sun 01:20:24 PM 38.9333 -84.6167 159° South 292 336 6,900  Level Cincinnati TRACON
Sun 01:20:30 PM 38.9240 -84.6054 109° East 281 323 6,900  Level FlightAware ADS-B (KCVG)
Sun 01:21:06 PM 38.9183 -84.5503 106° East 287 330 6,900  Level Indianapolis Center
Sun 01:21:14 PM 38.9274 -84.5328 53° Northeast 291 335 6,900 97 Level FlightAware ADS-B (KCVG)
Sun 01:22:08 PM 38.9706 -84.4722 49° Northeast 295 339 7,000 52 Climbing Indianapolis Center
Sun 01:23:00 PM 39.0106 -84.4109 53° Northeast  Level Estimated
Sun 01:23:10 PM 39.0231 -84.3975 48° Northeast 288 331 7,000  Level Indianapolis Center
Sun 01:24:12 PM 39.0744 -84.3231 48° Northeast 285 328 7,000 76 Level Indianapolis Center
Sun 01:24:29 PM 39.0964 -84.2944 45° Northeast 274 315 7,100  Climbing Indianapolis Center
Sun 01:25:05 PM 39.1267 -84.2483 50° Northeast 275 316 7,000 -791 Descending Indianapolis Center
Sun 01:26:00 PM 39.1672 -84.1853 50° Northeast 248 285 5,900 -1,371 Descending Indianapolis Center
Sun 01:26:15 PM 39.1783 -84.1667 52° Northeast 259 298 5,400 -1,091 Descending Indianapolis Center
Sun 01:27:17 PM 39.2175 -84.0981 54° Northeast 247 284 4,500 -1,009 Descending Indianapolis Center
Sun 01:28:02 PM 39.2386 -84.0464 62° Northeast 220 253 3,600 -1,258 Descending Indianapolis Center
Sun 01:28:19 PM 39.2483 -84.0303 52° Northeast 232 267 3,200 -600 Descending Indianapolis Center
Sun 01:29:02 PM 39.2708 -83.9817 59° Northeast 218 251 3,000 -290 Descending Indianapolis Center
Sun 01:29:21 PM 39.2789 -83.9658 57° Northeast 221 254 2,900  Descending Indianapolis Center
Sun 01:30:03 PM 39.3019 -83.9247 54° Northeast 185 213 3,000  Climbing Indianapolis Center
Sun 01:30:23 PM 39.3086 -83.9125 55° Northeast 201 231 2,900 -228 Descending Indianapolis Center
Sun 01:31:22 PM 39.3511 -83.8764 33° Northeast 166 191 2,700 -421 Descending Indianapolis Center
Sun 01:32:17 PM 39.3769 -83.8508 37° Northeast 129 148 2,100 -831 Descending Indianapolis Center
Sun 01:32:27 PM 39.3850 -83.8411 43° Northeast 159 183 1,800 -600 Descending Indianapolis Center
Sun 01:33:17 PM 39.4050 -83.8233 34° Northeast 121 139 1,500 -360 Descending Indianapolis Center
Sun 01:35:00 PM 39.4167 -83.7833 90° East  Level FlightAware Approximate

Login

Don't have an account? Register now (free) for customized features, flight alerts, and more!